sensor_id;sensor_type;location;lat;lon;timestamp;P1;durP1;ratioP1;P2;durP2;ratioP2
20511;SDS011;10414;52.074;5.126;2023-07-24T00:01:51;7.45;;;3.85;;
20511;SDS011;10414;52.074;5.126;2023-07-24T00:04:18;6.85;;;4.10;;
20511;SDS011;10414;52.074;5.126;2023-07-24T00:06:48;5.35;;;3.42;;
20511;SDS011;10414;52.074;5.126;2023-07-24T00:09:18;6.60;;;3.92;;
20511;SDS011;10414;52.074;5.126;2023-07-24T00:11:44;6.50;;;3.70;;
20511;SDS011;10414;52.074;5.126;2023-07-24T00:14:11;7.70;;;4.13;;
20511;SDS011;10414;52.074;5.126;2023-07-24T00:16:38;6.53;;;3.90;;
20511;SDS011;10414;52.074;5.126;2023-07-24T00:19:06;6.55;;;3.30;;
20511;SDS011;10414;52.074;5.126;2023-07-24T00:21:36;6.30;;;3.28;;
20511;SDS011;10414;52.074;5.126;2023-07-24T00:24:03;7.22;;;3.80;;
20511;SDS011;10414;52.074;5.126;2023-07-24T00:26:30;6.13;;;3.92;;
20511;SDS011;10414;52.074;5.126;2023-07-24T00:29:02;7.30;;;4.10;;
20511;SDS011;10414;52.074;5.126;2023-07-24T00:31:28;8.45;;;4.40;;
20511;SDS011;10414;52.074;5.126;2023-07-24T00:33:55;6.10;;;3.58;;
20511;SDS011;10414;52.074;5.126;2023-07-24T00:36:26;7.07;;;4.05;;
20511;SDS011;10414;52.074;5.126;2023-07-24T00:38:54;6.57;;;3.85;;
20511;SDS011;10414;52.074;5.126;2023-07-24T00:41:23;7.30;;;4.20;;
20511;SDS011;10414;52.074;5.126;2023-07-24T00:43:50;6.78;;;3.90;;
20511;SDS011;10414;52.074;5.126;2023-07-24T00:46:17;5.63;;;3.60;;
20511;SDS011;10414;52.074;5.126;2023-07-24T00:48:43;6.68;;;3.53;;
20511;SDS011;10414;52.074;5.126;2023-07-24T00:51:10;6.63;;;4.03;;
20511;SDS011;10414;52.074;5.126;2023-07-24T00:53:43;6.70;;;4.03;;
20511;SDS011;10414;52.074;5.126;2023-07-24T00:56:12;6.85;;;3.92;;
20511;SDS011;10414;52.074;5.126;2023-07-24T00:58:39;6.20;;;3.78;;
20511;SDS011;10414;52.074;5.126;2023-07-24T01:01:06;7.07;;;3.92;;
20511;SDS011;10414;52.074;5.126;2023-07-24T01:03:38;6.75;;;3.75;;
20511;SDS011;10414;52.074;5.126;2023-07-24T01:06:05;7.13;;;3.92;;
20511;SDS011;10414;52.074;5.126;2023-07-24T01:08:32;7.57;;;3.90;;
20511;SDS011;10414;52.074;5.126;2023-07-24T01:11:05;6.80;;;3.83;;
20511;SDS011;10414;52.074;5.126;2023-07-24T01:13:40;7.53;;;4.28;;
20511;SDS011;10414;52.074;5.126;2023-07-24T01:16:12;7.93;;;4.05;;
20511;SDS011;10414;52.074;5.126;2023-07-24T01:18:43;6.47;;;3.70;;
20511;SDS011;10414;52.074;5.126;2023-07-24T01:21:11;6.53;;;3.80;;
20511;SDS011;10414;52.074;5.126;2023-07-24T01:23:44;6.22;;;3.50;;
20511;SDS011;10414;52.074;5.126;2023-07-24T01:26:22;6.30;;;3.70;;
20511;SDS011;10414;52.074;5.126;2023-07-24T01:28:50;7.22;;;3.90;;
20511;SDS011;10414;52.074;5.126;2023-07-24T01:31:17;7.55;;;3.50;;
20511;SDS011;10414;52.074;5.126;2023-07-24T01:33:43;6.53;;;3.60;;
20511;SDS011;10414;52.074;5.126;2023-07-24T01:36:13;6.15;;;3.78;;
20511;SDS011;10414;52.074;5.126;2023-07-24T01:38:41;7.60;;;3.97;;
20511;SDS011;10414;52.074;5.126;2023-07-24T01:41:10;6.85;;;3.55;;
20511;SDS011;10414;52.074;5.126;2023-07-24T01:43:39;6.63;;;3.90;;
20511;SDS011;10414;52.074;5.126;2023-07-24T01:46:07;7.03;;;3.95;;
20511;SDS011;10414;52.074;5.126;2023-07-24T01:48:34;6.97;;;3.78;;
20511;SDS011;10414;52.074;5.126;2023-07-24T01:51:01;6.50;;;4.00;;
20511;SDS011;10414;52.074;5.126;2023-07-24T01:53:30;6.70;;;3.90;;
20511;SDS011;10414;52.074;5.126;2023-07-24T01:55:57;7.60;;;4.07;;
20511;SDS011;10414;52.074;5.126;2023-07-24T01:58:24;6.75;;;4.03;;
20511;SDS011;10414;52.074;5.126;2023-07-24T02:00:54;6.38;;;3.90;;
20511;SDS011;10414;52.074;5.126;2023-07-24T02:03:24;7.85;;;3.75;;
20511;SDS011;10414;52.074;5.126;2023-07-24T02:05:51;6.63;;;3.90;;
20511;SDS011;10414;52.074;5.126;2023-07-24T02:08:17;6.43;;;3.63;;
20511;SDS011;10414;52.074;5.126;2023-07-24T02:10:47;7.32;;;3.80;;
20511;SDS011;10414;52.074;5.126;2023-07-24T02:13:15;5.90;;;3.40;;
20511;SDS011;10414;52.074;5.126;2023-07-24T02:15:41;7.10;;;3.65;;
20511;SDS011;10414;52.074;5.126;2023-07-24T02:18:09;7.65;;;3.58;;
20511;SDS011;10414;52.074;5.126;2023-07-24T02:20:36;6.85;;;3.20;;
20511;SDS011;10414;52.074;5.126;2023-07-24T02:23:04;6.00;;;3.65;;
20511;SDS011;10414;52.074;5.126;2023-07-24T02:25:31;7.68;;;3.63;;
20511;SDS011;10414;52.074;5.126;2023-07-24T02:27:58;6.78;;;3.60;;
20511;SDS011;10414;52.074;5.126;2023-07-24T02:30:28;6.70;;;3.67;;
20511;SDS011;10414;52.074;5.126;2023-07-24T02:32:57;7.75;;;4.70;;
20511;SDS011;10414;52.074;5.126;2023-07-24T02:35:26;8.27;;;3.95;;
20511;SDS011;10414;52.074;5.126;2023-07-24T02:37:53;7.70;;;4.38;;
20511;SDS011;10414;52.074;5.126;2023-07-24T02:40:21;8.18;;;4.28;;
20511;SDS011;10414;52.074;5.126;2023-07-24T02:42:48;8.88;;;4.60;;
20511;SDS011;10414;52.074;5.126;2023-07-24T02:45:15;6.85;;;3.97;;
20511;SDS011;10414;52.074;5.126;2023-07-24T02:47:44;6.57;;;4.32;;
20511;SDS011;10414;52.074;5.126;2023-07-24T02:50:11;8.25;;;4.68;;
20511;SDS011;10414;52.074;5.126;2023-07-24T02:52:41;9.02;;;4.43;;
20511;SDS011;10414;52.074;5.126;2023-07-24T02:55:08;6.97;;;3.90;;
20511;SDS011;10414;52.074;5.126;2023-07-24T02:57:35;7.07;;;4.40;;
20511;SDS011;10414;52.074;5.126;2023-07-24T03:00:02;7.75;;;4.38;;
20511;SDS011;10414;52.074;5.126;2023-07-24T03:02:30;8.07;;;4.43;;
20511;SDS011;10414;52.074;5.126;2023-07-24T03:04:56;7.28;;;4.13;;
20511;SDS011;10414;52.074;5.126;2023-07-24T03:07:24;7.82;;;4.43;;
20511;SDS011;10414;52.074;5.126;2023-07-24T03:09:52;9.38;;;5.13;;
20511;SDS011;10414;52.074;5.126;2023-07-24T03:12:18;10.80;;;5.10;;
20511;SDS011;10414;52.074;5.126;2023-07-24T03:14:47;8.40;;;4.97;;
20511;SDS011;10414;52.074;5.126;2023-07-24T03:17:17;9.77;;;5.33;;
20511;SDS011;10414;52.074;5.126;2023-07-24T03:19:44;10.63;;;5.78;;
20511;SDS011;10414;52.074;5.126;2023-07-24T03:22:11;10.98;;;5.10;;
20511;SDS011;10414;52.074;5.126;2023-07-24T03:24:38;9.10;;;5.13;;
20511;SDS011;10414;52.074;5.126;2023-07-24T03:27:07;11.05;;;5.55;;
20511;SDS011;10414;52.074;5.126;2023-07-24T03:29:34;11.30;;;5.20;;
20511;SDS011;10414;52.074;5.126;2023-07-24T03:32:02;9.32;;;5.55;;
20511;SDS011;10414;52.074;5.126;2023-07-24T03:34:29;10.02;;;5.13;;
20511;SDS011;10414;52.074;5.126;2023-07-24T03:36:56;10.43;;;5.45;;
20511;SDS011;10414;52.074;5.126;2023-07-24T03:39:23;9.90;;;5.15;;
20511;SDS011;10414;52.074;5.126;2023-07-24T03:41:50;9.52;;;5.40;;
20511;SDS011;10414;52.074;5.126;2023-07-24T03:44:18;9.55;;;5.28;;
20511;SDS011;10414;52.074;5.126;2023-07-24T03:46:45;8.90;;;5.40;;
20511;SDS011;10414;52.074;5.126;2023-07-24T03:49:12;10.77;;;5.38;;
20511;SDS011;10414;52.074;5.126;2023-07-24T03:51:39;10.52;;;5.25;;
20511;SDS011;10414;52.074;5.126;2023-07-24T03:54:05;8.82;;;4.93;;
20511;SDS011;10414;52.074;5.126;2023-07-24T03:56:32;8.30;;;5.45;;
20511;SDS011;10414;52.074;5.126;2023-07-24T03:58:59;9.82;;;5.72;;
20511;SDS011;10414;52.074;5.126;2023-07-24T04:01:27;10.40;;;5.03;;
20511;SDS011;10414;52.074;5.126;2023-07-24T04:03:54;10.02;;;5.20;;
20511;SDS011;10414;52.074;5.126;2023-07-24T04:06:21;8.88;;;5.50;;
20511;SDS011;10414;52.074;5.126;2023-07-24T04:08:48;9.23;;;4.95;;
20511;SDS011;10414;52.074;5.126;2023-07-24T04:11:15;10.15;;;5.63;;
20511;SDS011;10414;52.074;5.126;2023-07-24T04:13:43;12.63;;;5.72;;
20511;SDS011;10414;52.074;5.126;2023-07-24T04:16:10;12.43;;;6.15;;
20511;SDS011;10414;52.074;5.126;2023-07-24T04:18:38;10.38;;;5.85;;
20511;SDS011;10414;52.074;5.126;2023-07-24T04:21:05;9.35;;;5.85;;
20511;SDS011;10414;52.074;5.126;2023-07-24T04:23:34;9.48;;;5.50;;
20511;SDS011;10414;52.074;5.126;2023-07-24T04:26:01;10.95;;;5.63;;
20511;SDS011;10414;52.074;5.126;2023-07-24T04:28:28;9.23;;;5.15;;
20511;SDS011;10414;52.074;5.126;2023-07-24T04:30:59;9.82;;;5.32;;
20511;SDS011;10414;52.074;5.126;2023-07-24T04:33:26;9.88;;;4.80;;
20511;SDS011;10414;52.074;5.126;2023-07-24T04:35:55;10.85;;;5.65;;
20511;SDS011;10414;52.074;5.126;2023-07-24T04:38:22;10.98;;;4.82;;
20511;SDS011;10414;52.074;5.126;2023-07-24T04:40:49;12.07;;;6.13;;
20511;SDS011;10414;52.074;5.126;2023-07-24T04:43:16;12.23;;;5.30;;
20511;SDS011;10414;52.074;5.126;2023-07-24T04:45:43;12.82;;;5.97;;
20511;SDS011;10414;52.074;5.126;2023-07-24T04:48:09;11.85;;;6.22;;
20511;SDS011;10414;52.074;5.126;2023-07-24T04:50:36;9.60;;;5.85;;
20511;SDS011;10414;52.074;5.126;2023-07-24T04:53:04;12.07;;;5.95;;
20511;SDS011;10414;52.074;5.126;2023-07-24T04:55:31;10.95;;;5.65;;
20511;SDS011;10414;52.074;5.126;2023-07-24T04:57:58;12.25;;;5.95;;
20511;SDS011;10414;52.074;5.126;2023-07-24T05:00:27;10.93;;;6.10;;
20511;SDS011;10414;52.074;5.126;2023-07-24T05:02:55;12.65;;;6.10;;
20511;SDS011;10414;52.074;5.126;2023-07-24T05:05:22;12.70;;;5.85;;
20511;SDS011;10414;52.074;5.126;2023-07-24T05:07:49;10.85;;;5.50;;
20511;SDS011;10414;52.074;5.126;2023-07-24T05:10:17;10.45;;;5.22;;
20511;SDS011;10414;52.074;5.126;2023-07-24T05:12:43;11.02;;;5.43;;
20511;SDS011;10414;52.074;5.126;2023-07-24T05:15:10;11.25;;;5.60;;
20511;SDS011;10414;52.074;5.126;2023-07-24T05:17:37;11.98;;;5.82;;
20511;SDS011;10414;52.074;5.126;2023-07-24T05:20:05;10.02;;;4.93;;
20511;SDS011;10414;52.074;5.126;2023-07-24T05:22:32;10.30;;;4.93;;
20511;SDS011;10414;52.074;5.126;2023-07-24T05:24:59;10.57;;;5.03;;
20511;SDS011;10414;52.074;5.126;2023-07-24T05:27:30;10.48;;;5.15;;
20511;SDS011;10414;52.074;5.126;2023-07-24T05:29:56;9.23;;;4.80;;
20511;SDS011;10414;52.074;5.126;2023-07-24T05:32:23;9.02;;;5.00;;
20511;SDS011;10414;52.074;5.126;2023-07-24T05:34:50;9.57;;;4.75;;
20511;SDS011;10414;52.074;5.126;2023-07-24T05:37:17;10.40;;;5.47;;
20511;SDS011;10414;52.074;5.126;2023-07-24T05:39:44;10.00;;;5.13;;
20511;SDS011;10414;52.074;5.126;2023-07-24T05:42:11;12.32;;;5.10;;
20511;SDS011;10414;52.074;5.126;2023-07-24T05:44:39;10.00;;;4.53;;
20511;SDS011;10414;52.074;5.126;2023-07-24T05:47:06;10.60;;;4.65;;
20511;SDS011;10414;52.074;5.126;2023-07-24T05:49:33;10.95;;;5.00;;
20511;SDS011;10414;52.074;5.126;2023-07-24T05:51:59;12.73;;;4.70;;
20511;SDS011;10414;52.074;5.126;2023-07-24T05:54:26;10.55;;;4.72;;
20511;SDS011;10414;52.074;5.126;2023-07-24T05:56:53;10.50;;;4.78;;
20511;SDS011;10414;52.074;5.126;2023-07-24T05:59:20;11.52;;;4.95;;
20511;SDS011;10414;52.074;5.126;2023-07-24T06:01:48;9.20;;;3.85;;
20511;SDS011;10414;52.074;5.126;2023-07-24T06:04:15;9.00;;;4.20;;
20511;SDS011;10414;52.074;5.126;2023-07-24T06:06:43;8.90;;;4.32;;
20511;SDS011;10414;52.074;5.126;2023-07-24T06:09:10;7.65;;;3.70;;
20511;SDS011;10414;52.074;5.126;2023-07-24T06:11:37;9.70;;;3.95;;
20511;SDS011;10414;52.074;5.126;2023-07-24T06:14:04;7.78;;;4.25;;
20511;SDS011;10414;52.074;5.126;2023-07-24T06:16:33;8.73;;;4.15;;
20511;SDS011;10414;52.074;5.126;2023-07-24T06:19:02;7.70;;;4.05;;
20511;SDS011;10414;52.074;5.126;2023-07-24T06:21:28;9.00;;;4.30;;
20511;SDS011;10414;52.074;5.126;2023-07-24T06:23:55;9.18;;;4.35;;
20511;SDS011;10414;52.074;5.126;2023-07-24T06:26:22;8.55;;;4.13;;
20511;SDS011;10414;52.074;5.126;2023-07-24T06:28:49;8.02;;;4.05;;
20511;SDS011;10414;52.074;5.126;2023-07-24T06:31:16;9.70;;;3.72;;
20511;SDS011;10414;52.074;5.126;2023-07-24T06:33:43;8.95;;;4.07;;
20511;SDS011;10414;52.074;5.126;2023-07-24T06:36:13;9.77;;;3.95;;
20511;SDS011;10414;52.074;5.126;2023-07-24T06:38:42;8.15;;;4.07;;
20511;SDS011;10414;52.074;5.126;2023-07-24T06:41:09;9.45;;;3.95;;
20511;SDS011;10414;52.074;5.126;2023-07-24T06:43:40;9.27;;;3.85;;
20511;SDS011;10414;52.074;5.126;2023-07-24T06:46:07;9.20;;;4.10;;
20511;SDS011;10414;52.074;5.126;2023-07-24T06:48:34;11.60;;;4.95;;
20511;SDS011;10414;52.074;5.126;2023-07-24T06:51:03;10.10;;;4.68;;
20511;SDS011;10414;52.074;5.126;2023-07-24T06:53:31;15.55;;;5.63;;
20511;SDS011;10414;52.074;5.126;2023-07-24T06:55:58;10.95;;;4.90;;
20511;SDS011;10414;52.074;5.126;2023-07-24T06:58:25;15.70;;;5.10;;
20511;SDS011;10414;52.074;5.126;2023-07-24T07:00:52;12.13;;;4.90;;
20511;SDS011;10414;52.074;5.126;2023-07-24T07:03:20;10.02;;;5.05;;
20511;SDS011;10414;52.074;5.126;2023-07-24T07:05:47;8.43;;;4.53;;
20511;SDS011;10414;52.074;5.126;2023-07-24T07:08:16;11.32;;;4.80;;
20511;SDS011;10414;52.074;5.126;2023-07-24T07:10:44;9.77;;;4.45;;
20511;SDS011;10414;52.074;5.126;2023-07-24T07:13:12;12.68;;;4.43;;
20511;SDS011;10414;52.074;5.126;2023-07-24T07:15:39;9.18;;;5.15;;
20511;SDS011;10414;52.074;5.126;2023-07-24T07:18:06;11.38;;;4.95;;
20511;SDS011;10414;52.074;5.126;2023-07-24T07:20:33;11.43;;;4.50;;
20511;SDS011;10414;52.074;5.126;2023-07-24T07:23:03;9.48;;;4.10;;
20511;SDS011;10414;52.074;5.126;2023-07-24T07:25:29;9.10;;;4.60;;
20511;SDS011;10414;52.074;5.126;2023-07-24T07:27:58;10.30;;;4.28;;
20511;SDS011;10414;52.074;5.126;2023-07-24T07:30:25;15.00;;;4.20;;
20511;SDS011;10414;52.074;5.126;2023-07-24T07:32:51;10.93;;;4.03;;
20511;SDS011;10414;52.074;5.126;2023-07-24T07:35:20;7.80;;;4.22;;
20511;SDS011;10414;52.074;5.126;2023-07-24T07:37:47;12.10;;;4.28;;
20511;SDS011;10414;52.074;5.126;2023-07-24T07:40:17;10.73;;;4.07;;
20511;SDS011;10414;52.074;5.126;2023-07-24T07:42:43;11.95;;;3.95;;
20511;SDS011;10414;52.074;5.126;2023-07-24T07:45:12;8.50;;;3.58;;
20511;SDS011;10414;52.074;5.126;2023-07-24T07:47:39;13.20;;;4.13;;
20511;SDS011;10414;52.074;5.126;2023-07-24T07:50:08;8.52;;;4.05;;
20511;SDS011;10414;52.074;5.126;2023-07-24T07:52:35;9.48;;;4.10;;
20511;SDS011;10414;52.074;5.126;2023-07-24T07:55:02;10.10;;;4.53;;
20511;SDS011;10414;52.074;5.126;2023-07-24T07:57:33;8.55;;;4.43;;
20511;SDS011;10414;52.074;5.126;2023-07-24T08:00:03;9.40;;;4.47;;
20511;SDS011;10414;52.074;5.126;2023-07-24T08:02:35;11.23;;;4.55;;
20511;SDS011;10414;52.074;5.126;2023-07-24T08:05:05;8.88;;;4.05;;
20511;SDS011;10414;52.074;5.126;2023-07-24T08:07:32;8.90;;;4.00;;
20511;SDS011;10414;52.074;5.126;2023-07-24T08:09:59;10.63;;;4.70;;
20511;SDS011;10414;52.074;5.126;2023-07-24T08:12:26;9.18;;;4.65;;
20511;SDS011;10414;52.074;5.126;2023-07-24T08:14:53;10.43;;;5.07;;
20511;SDS011;10414;52.074;5.126;2023-07-24T08:17:20;10.52;;;5.03;;
20511;SDS011;10414;52.074;5.126;2023-07-24T08:19:48;12.20;;;5.45;;
20511;SDS011;10414;52.074;5.126;2023-07-24T08:22:15;12.07;;;5.75;;
20511;SDS011;10414;52.074;5.126;2023-07-24T08:24:41;14.07;;;5.20;;
20511;SDS011;10414;52.074;5.126;2023-07-24T08:27:10;11.38;;;4.97;;
20511;SDS011;10414;52.074;5.126;2023-07-24T08:29:36;9.80;;;4.80;;
20511;SDS011;10414;52.074;5.126;2023-07-24T08:32:04;7.70;;;4.22;;
20511;SDS011;10414;52.074;5.126;2023-07-24T08:34:31;7.97;;;4.00;;
20511;SDS011;10414;52.074;5.126;2023-07-24T08:36:59;10.15;;;4.63;;
20511;SDS011;10414;52.074;5.126;2023-07-24T08:39:28;8.95;;;4.70;;
20511;SDS011;10414;52.074;5.126;2023-07-24T08:41:55;9.30;;;4.55;;
20511;SDS011;10414;52.074;5.126;2023-07-24T08:44:25;7.68;;;4.28;;
20511;SDS011;10414;52.074;5.126;2023-07-24T08:46:56;9.73;;;4.28;;
20511;SDS011;10414;52.074;5.126;2023-07-24T08:49:23;8.32;;;3.90;;
20511;SDS011;10414;52.074;5.126;2023-07-24T08:51:52;10.23;;;4.40;;
20511;SDS011;10414;52.074;5.126;2023-07-24T08:54:21;10.13;;;4.18;;
20511;SDS011;10414;52.074;5.126;2023-07-24T08:56:49;9.43;;;4.32;;
20511;SDS011;10414;52.074;5.126;2023-07-24T08:59:17;9.27;;;4.65;;
20511;SDS011;10414;52.074;5.126;2023-07-24T09:01:46;10.75;;;4.53;;
20511;SDS011;10414;52.074;5.126;2023-07-24T09:04:13;7.95;;;4.50;;
20511;SDS011;10414;52.074;5.126;2023-07-24T09:06:40;8.45;;;4.32;;
20511;SDS011;10414;52.074;5.126;2023-07-24T09:09:12;14.95;;;4.90;;
20511;SDS011;10414;52.074;5.126;2023-07-24T09:11:48;7.10;;;4.18;;
20511;SDS011;10414;52.074;5.126;2023-07-24T09:14:21;10.70;;;5.38;;
20511;SDS011;10414;52.074;5.126;2023-07-24T09:16:48;13.25;;;5.63;;
20511;SDS011;10414;52.074;5.126;2023-07-24T09:19:18;10.87;;;5.63;;
20511;SDS011;10414;52.074;5.126;2023-07-24T09:21:45;11.13;;;6.15;;
20511;SDS011;10414;52.074;5.126;2023-07-24T09:24:13;11.15;;;6.50;;
20511;SDS011;10414;52.074;5.126;2023-07-24T09:26:48;12.35;;;5.93;;
20511;SDS011;10414;52.074;5.126;2023-07-24T09:29:16;11.35;;;5.45;;
20511;SDS011;10414;52.074;5.126;2023-07-24T09:31:46;10.05;;;5.53;;
20511;SDS011;10414;52.074;5.126;2023-07-24T09:34:18;8.98;;;5.25;;
20511;SDS011;10414;52.074;5.126;2023-07-24T09:36:45;9.32;;;5.38;;
20511;SDS011;10414;52.074;5.126;2023-07-24T09:39:12;10.57;;;5.47;;
20511;SDS011;10414;52.074;5.126;2023-07-24T09:41:39;10.48;;;4.90;;
20511;SDS011;10414;52.074;5.126;2023-07-24T09:44:07;8.25;;;4.43;;
20511;SDS011;10414;52.074;5.126;2023-07-24T09:46:38;8.57;;;4.80;;
20511;SDS011;10414;52.074;5.126;2023-07-24T09:49:04;9.02;;;4.55;;
20511;SDS011;10414;52.074;5.126;2023-07-24T09:51:31;8.68;;;4.28;;
20511;SDS011;10414;52.074;5.126;2023-07-24T09:54:01;10.63;;;3.97;;
20511;SDS011;10414;52.074;5.126;2023-07-24T09:56:33;11.05;;;4.90;;
20511;SDS011;10414;52.074;5.126;2023-07-24T09:59:03;11.98;;;4.65;;
20511;SDS011;10414;52.074;5.126;2023-07-24T10:01:34;8.85;;;4.60;;
20511;SDS011;10414;52.074;5.126;2023-07-24T10:04:04;10.63;;;5.18;;
20511;SDS011;10414;52.074;5.126;2023-07-24T10:06:36;10.18;;;4.90;;
20511;SDS011;10414;52.074;5.126;2023-07-24T10:09:03;10.65;;;4.70;;
20511;SDS011;10414;52.074;5.126;2023-07-24T10:11:31;11.32;;;4.85;;
20511;SDS011;10414;52.074;5.126;2023-07-24T10:13:58;10.13;;;4.57;;
20511;SDS011;10414;52.074;5.126;2023-07-24T10:16:26;9.77;;;4.20;;
20511;SDS011;10414;52.074;5.126;2023-07-24T10:18:54;9.77;;;4.88;;
20511;SDS011;10414;52.074;5.126;2023-07-24T10:21:25;10.35;;;4.60;;
20511;SDS011;10414;52.074;5.126;2023-07-24T10:23:53;8.43;;;4.30;;
20511;SDS011;10414;52.074;5.126;2023-07-24T10:26:24;9.40;;;5.07;;
20511;SDS011;10414;52.074;5.126;2023-07-24T10:28:51;10.38;;;5.03;;
20511;SDS011;10414;52.074;5.126;2023-07-24T10:31:22;11.45;;;5.03;;
20511;SDS011;10414;52.074;5.126;2023-07-24T10:33:52;7.68;;;4.57;;
20511;SDS011;10414;52.074;5.126;2023-07-24T10:36:22;9.63;;;4.43;;
20511;SDS011;10414;52.074;5.126;2023-07-24T10:38:52;9.80;;;4.75;;
20511;SDS011;10414;52.074;5.126;2023-07-24T10:41:20;12.20;;;5.07;;
20511;SDS011;10414;52.074;5.126;2023-07-24T10:43:48;9.20;;;5.10;;
20511;SDS011;10414;52.074;5.126;2023-07-24T10:46:16;13.23;;;4.75;;
20511;SDS011;10414;52.074;5.126;2023-07-24T10:48:44;11.20;;;4.50;;
20511;SDS011;10414;52.074;5.126;2023-07-24T10:51:13;9.80;;;4.75;;
20511;SDS011;10414;52.074;5.126;2023-07-24T10:53:43;9.32;;;4.75;;
20511;SDS011;10414;52.074;5.126;2023-07-24T10:56:11;10.40;;;4.78;;
20511;SDS011;10414;52.074;5.126;2023-07-24T10:58:52;10.13;;;4.85;;
20511;SDS011;10414;52.074;5.126;2023-07-24T11:01:19;10.73;;;4.65;;
20511;SDS011;10414;52.074;5.126;2023-07-24T11:03:46;9.30;;;4.97;;
20511;SDS011;10414;52.074;5.126;2023-07-24T11:06:17;10.02;;;4.72;;
20511;SDS011;10414;52.074;5.126;2023-07-24T11:08:50;8.82;;;4.50;;
20511;SDS011;10414;52.074;5.126;2023-07-24T11:11:21;10.18;;;4.97;;
20511;SDS011;10414;52.074;5.126;2023-07-24T11:13:51;8.88;;;4.47;;
20511;SDS011;10414;52.074;5.126;2023-07-24T11:16:18;8.13;;;4.63;;
20511;SDS011;10414;52.074;5.126;2023-07-24T11:18:45;12.27;;;5.60;;
20511;SDS011;10414;52.074;5.126;2023-07-24T11:21:18;10.02;;;5.57;;
20511;SDS011;10414;52.074;5.126;2023-07-24T11:23:46;11.82;;;5.05;;
20511;SDS011;10414;52.074;5.126;2023-07-24T11:26:13;12.18;;;5.20;;
20511;SDS011;10414;52.074;5.126;2023-07-24T11:28:41;10.88;;;4.95;;
20511;SDS011;10414;52.074;5.126;2023-07-24T11:31:08;10.65;;;4.78;;
20511;SDS011;10414;52.074;5.126;2023-07-24T11:33:36;8.82;;;4.70;;
20511;SDS011;10414;52.074;5.126;2023-07-24T11:36:03;9.57;;;4.10;;
20511;SDS011;10414;52.074;5.126;2023-07-24T11:38:32;9.10;;;4.28;;
20511;SDS011;10414;52.074;5.126;2023-07-24T11:40:58;8.23;;;3.90;;
20511;SDS011;10414;52.074;5.126;2023-07-24T11:43:25;8.65;;;3.95;;
20511;SDS011;10414;52.074;5.126;2023-07-24T11:45:52;10.35;;;4.40;;
20511;SDS011;10414;52.074;5.126;2023-07-24T11:48:20;10.00;;;4.05;;
20511;SDS011;10414;52.074;5.126;2023-07-24T11:50:48;8.30;;;3.63;;
20511;SDS011;10414;52.074;5.126;2023-07-24T11:53:21;13.23;;;3.65;;
20511;SDS011;10414;52.074;5.126;2023-07-24T11:55:50;9.50;;;3.92;;
20511;SDS011;10414;52.074;5.126;2023-07-24T11:58:17;7.82;;;3.70;;
20511;SDS011;10414;52.074;5.126;2023-07-24T12:00:45;9.18;;;3.95;;
20511;SDS011;10414;52.074;5.126;2023-07-24T12:03:13;10.23;;;4.03;;
20511;SDS011;10414;52.074;5.126;2023-07-24T12:05:41;8.45;;;4.45;;
20511;SDS011;10414;52.074;5.126;2023-07-24T12:08:09;13.25;;;5.00;;
20511;SDS011;10414;52.074;5.126;2023-07-24T12:10:36;8.93;;;5.10;;
20511;SDS011;10414;52.074;5.126;2023-07-24T12:13:07;10.32;;;5.07;;
20511;SDS011;10414;52.074;5.126;2023-07-24T12:15:34;9.85;;;4.30;;
20511;SDS011;10414;52.074;5.126;2023-07-24T12:18:02;12.55;;;5.70;;
20511;SDS011;10414;52.074;5.126;2023-07-24T12:20:29;10.70;;;5.28;;
20511;SDS011;10414;52.074;5.126;2023-07-24T12:22:57;9.88;;;5.63;;
20511;SDS011;10414;52.074;5.126;2023-07-24T12:25:24;10.32;;;5.25;;
20511;SDS011;10414;52.074;5.126;2023-07-24T12:27:51;18.17;;;6.35;;
20511;SDS011;10414;52.074;5.126;2023-07-24T12:30:19;12.60;;;6.90;;
20511;SDS011;10414;52.074;5.126;2023-07-24T12:32:46;12.20;;;6.93;;
20511;SDS011;10414;52.074;5.126;2023-07-24T12:35:13;12.10;;;6.80;;
20511;SDS011;10414;52.074;5.126;2023-07-24T12:37:40;15.10;;;6.80;;
20511;SDS011;10414;52.074;5.126;2023-07-24T12:40:07;14.65;;;7.47;;
20511;SDS011;10414;52.074;5.126;2023-07-24T12:42:35;14.63;;;6.72;;
20511;SDS011;10414;52.074;5.126;2023-07-24T12:45:02;11.90;;;6.43;;
20511;SDS011;10414;52.074;5.126;2023-07-24T12:47:33;13.60;;;6.70;;
20511;SDS011;10414;52.074;5.126;2023-07-24T12:50:02;9.68;;;6.28;;
20511;SDS011;10414;52.074;5.126;2023-07-24T12:52:29;11.07;;;6.85;;
20511;SDS011;10414;52.074;5.126;2023-07-24T12:54:56;11.02;;;6.93;;
20511;SDS011;10414;52.074;5.126;2023-07-24T12:57:23;10.13;;;6.28;;
20511;SDS011;10414;52.074;5.126;2023-07-24T12:59:51;11.60;;;6.38;;
20511;SDS011;10414;52.074;5.126;2023-07-24T13:02:18;9.30;;;6.28;;
20511;SDS011;10414;52.074;5.126;2023-07-24T13:04:46;10.13;;;5.97;;
20511;SDS011;10414;52.074;5.126;2023-07-24T13:07:13;9.95;;;6.47;;
20511;SDS011;10414;52.074;5.126;2023-07-24T13:09:40;11.15;;;5.90;;
20511;SDS011;10414;52.074;5.126;2023-07-24T13:12:07;9.77;;;6.30;;
20511;SDS011;10414;52.074;5.126;2023-07-24T13:14:35;10.25;;;5.82;;
20511;SDS011;10414;52.074;5.126;2023-07-24T13:17:02;13.05;;;5.93;;
20511;SDS011;10414;52.074;5.126;2023-07-24T13:19:29;12.88;;;6.60;;
20511;SDS011;10414;52.074;5.126;2023-07-24T13:21:58;11.10;;;6.43;;
20511;SDS011;10414;52.074;5.126;2023-07-24T13:24:25;13.63;;;6.93;;
20511;SDS011;10414;52.074;5.126;2023-07-24T13:26:52;10.88;;;6.28;;
20511;SDS011;10414;52.074;5.126;2023-07-24T13:29:19;9.02;;;5.82;;
20511;SDS011;10414;52.074;5.126;2023-07-24T13:31:46;6.72;;;4.13;;
20511;SDS011;10414;52.074;5.126;2023-07-24T13:34:12;9.75;;;4.57;;
20511;SDS011;10414;52.074;5.126;2023-07-24T13:36:39;5.63;;;3.35;;
20511;SDS011;10414;52.074;5.126;2023-07-24T13:39:08;5.43;;;3.03;;
20511;SDS011;10414;52.074;5.126;2023-07-24T13:41:34;5.68;;;2.90;;
20511;SDS011;10414;52.074;5.126;2023-07-24T13:44:03;5.05;;;2.47;;
20511;SDS011;10414;52.074;5.126;2023-07-24T13:46:30;6.00;;;2.70;;
20511;SDS011;10414;52.074;5.126;2023-07-24T13:48:57;5.95;;;2.15;;
20511;SDS011;10414;52.074;5.126;2023-07-24T13:51:26;6.00;;;2.35;;
20511;SDS011;10414;52.074;5.126;2023-07-24T13:53:53;6.03;;;2.50;;
20511;SDS011;10414;52.074;5.126;2023-07-24T13:56:21;5.50;;;2.10;;
20511;SDS011;10414;52.074;5.126;2023-07-24T13:58:48;5.55;;;2.10;;
20511;SDS011;10414;52.074;5.126;2023-07-24T14:01:15;7.90;;;2.30;;
20511;SDS011;10414;52.074;5.126;2023-07-24T14:03:42;4.32;;;1.88;;
20511;SDS011;10414;52.074;5.126;2023-07-24T14:06:11;4.35;;;1.83;;
20511;SDS011;10414;52.074;5.126;2023-07-24T14:08:38;7.05;;;2.20;;
20511;SDS011;10414;52.074;5.126;2023-07-24T14:11:05;7.72;;;2.30;;
20511;SDS011;10414;52.074;5.126;2023-07-24T14:13:33;7.03;;;2.08;;
20511;SDS011;10414;52.074;5.126;2023-07-24T14:16:00;7.75;;;2.28;;
20511;SDS011;10414;52.074;5.126;2023-07-24T14:18:26;7.35;;;1.80;;
20511;SDS011;10414;52.074;5.126;2023-07-24T14:20:53;6.57;;;1.80;;
20511;SDS011;10414;52.074;5.126;2023-07-24T14:23:21;7.55;;;2.00;;
20511;SDS011;10414;52.074;5.126;2023-07-24T14:25:48;8.30;;;2.08;;
20511;SDS011;10414;52.074;5.126;2023-07-24T14:28:16;4.75;;;1.60;;
20511;SDS011;10414;52.074;5.126;2023-07-24T14:30:44;6.57;;;1.85;;
20511;SDS011;10414;52.074;5.126;2023-07-24T14:33:11;5.40;;;1.80;;
20511;SDS011;10414;52.074;5.126;2023-07-24T14:35:39;6.10;;;1.55;;
20511;SDS011;10414;52.074;5.126;2023-07-24T14:38:06;7.05;;;1.92;;
20511;SDS011;10414;52.074;5.126;2023-07-24T14:40:32;4.95;;;1.77;;
20511;SDS011;10414;52.074;5.126;2023-07-24T14:42:59;5.38;;;1.70;;
20511;SDS011;10414;52.074;5.126;2023-07-24T14:45:35;8.25;;;1.40;;
20511;SDS011;10414;52.074;5.126;2023-07-24T14:48:03;5.43;;;1.77;;